sensor_id;sensor_type;location;lat;lon;timestamp;P1;durP1;ratioP1;P2;durP2;ratioP2
16153;SDS011;8182;55.648;13.208;2023-07-20T00:00:17;2.70;;;1.67;;
16153;SDS011;8182;55.648;13.208;2023-07-20T00:02:44;4.10;;;1.90;;
16153;SDS011;8182;55.648;13.208;2023-07-20T00:05:11;4.40;;;2.20;;
16153;SDS011;8182;55.648;13.208;2023-07-20T00:07:38;4.13;;;2.00;;
16153;SDS011;8182;55.648;13.208;2023-07-20T00:10:07;4.23;;;2.50;;
16153;SDS011;8182;55.648;13.208;2023-07-20T00:12:35;2.57;;;1.77;;
16153;SDS011;8182;55.648;13.208;2023-07-20T00:15:05;1.60;;;1.50;;
16153;SDS011;8182;55.648;13.208;2023-07-20T00:17:33;2.30;;;1.30;;
16153;SDS011;8182;55.648;13.208;2023-07-20T00:20:05;2.13;;;1.30;;
16153;SDS011;8182;55.648;13.208;2023-07-20T00:22:33;2.53;;;1.20;;
16153;SDS011;8182;55.648;13.208;2023-07-20T00:25:00;2.40;;;1.20;;
16153;SDS011;8182;55.648;13.208;2023-07-20T00:27:29;4.87;;;1.20;;
16153;SDS011;8182;55.648;13.208;2023-07-20T00:29:56;2.57;;;1.10;;
16153;SDS011;8182;55.648;13.208;2023-07-20T00:32:23;2.80;;;1.10;;
16153;SDS011;8182;55.648;13.208;2023-07-20T00:34:50;1.47;;;1.27;;
16153;SDS011;8182;55.648;13.208;2023-07-20T00:37:20;3.93;;;1.10;;
16153;SDS011;8182;55.648;13.208;2023-07-20T00:39:47;2.93;;;1.10;;
16153;SDS011;8182;55.648;13.208;2023-07-20T00:42:14;2.03;;;1.37;;
16153;SDS011;8182;55.648;13.208;2023-07-20T00:44:43;4.10;;;1.30;;
16153;SDS011;8182;55.648;13.208;2023-07-20T00:47:18;7.57;;;1.47;;
16153;SDS011;8182;55.648;13.208;2023-07-20T00:49:45;1.63;;;1.23;;
16153;SDS011;8182;55.648;13.208;2023-07-20T00:52:13;1.67;;;1.40;;
16153;SDS011;8182;55.648;13.208;2023-07-20T00:54:40;3.27;;;1.50;;
16153;SDS011;8182;55.648;13.208;2023-07-20T00:57:08;2.17;;;1.20;;
16153;SDS011;8182;55.648;13.208;2023-07-20T00:59:36;1.73;;;1.30;;
16153;SDS011;8182;55.648;13.208;2023-07-20T01:02:05;1.53;;;1.30;;
16153;SDS011;8182;55.648;13.208;2023-07-20T01:04:32;1.50;;;1.40;;
16153;SDS011;8182;55.648;13.208;2023-07-20T01:07:01;3.13;;;1.60;;
16153;SDS011;8182;55.648;13.208;2023-07-20T01:09:39;4.00;;;1.50;;
16153;SDS011;8182;55.648;13.208;2023-07-20T01:12:26;2.57;;;1.40;;
16153;SDS011;8182;55.648;13.208;2023-07-20T01:14:58;2.53;;;1.60;;
16153;SDS011;8182;55.648;13.208;2023-07-20T01:17:26;3.27;;;1.47;;
16153;SDS011;8182;55.648;13.208;2023-07-20T01:19:53;1.80;;;1.50;;
16153;SDS011;8182;55.648;13.208;2023-07-20T01:25:19;1.80;;;1.40;;
16153;SDS011;8182;55.648;13.208;2023-07-20T01:28:00;1.47;;;1.27;;
16153;SDS011;8182;55.648;13.208;2023-07-20T01:30:59;2.67;;;1.37;;
16153;SDS011;8182;55.648;13.208;2023-07-20T01:33:41;1.63;;;1.40;;
16153;SDS011;8182;55.648;13.208;2023-07-20T01:36:13;2.67;;;1.17;;
16153;SDS011;8182;55.648;13.208;2023-07-20T01:38:42;1.40;;;1.30;;
16153;SDS011;8182;55.648;13.208;2023-07-20T01:41:10;3.73;;;1.20;;
16153;SDS011;8182;55.648;13.208;2023-07-20T01:43:37;1.50;;;1.40;;
16153;SDS011;8182;55.648;13.208;2023-07-20T01:46:04;1.77;;;1.30;;
16153;SDS011;8182;55.648;13.208;2023-07-20T01:48:34;2.00;;;1.43;;
16153;SDS011;8182;55.648;13.208;2023-07-20T01:51:01;1.90;;;1.50;;
16153;SDS011;8182;55.648;13.208;2023-07-20T01:53:29;2.80;;;1.60;;
16153;SDS011;8182;55.648;13.208;2023-07-20T01:55:56;3.17;;;1.40;;
16153;SDS011;8182;55.648;13.208;2023-07-20T01:58:23;2.50;;;1.50;;
16153;SDS011;8182;55.648;13.208;2023-07-20T02:00:51;3.33;;;1.50;;
16153;SDS011;8182;55.648;13.208;2023-07-20T02:03:18;1.67;;;1.50;;
16153;SDS011;8182;55.648;13.208;2023-07-20T02:05:55;1.50;;;1.40;;
16153;SDS011;8182;55.648;13.208;2023-07-20T02:08:23;2.00;;;1.60;;
16153;SDS011;8182;55.648;13.208;2023-07-20T02:10:50;2.20;;;1.50;;
16153;SDS011;8182;55.648;13.208;2023-07-20T02:13:18;3.07;;;1.77;;
16153;SDS011;8182;55.648;13.208;2023-07-20T02:15:47;2.63;;;1.67;;
16153;SDS011;8182;55.648;13.208;2023-07-20T02:18:14;1.83;;;1.73;;
16153;SDS011;8182;55.648;13.208;2023-07-20T02:20:41;2.47;;;1.50;;
16153;SDS011;8182;55.648;13.208;2023-07-20T02:23:09;1.83;;;1.60;;
16153;SDS011;8182;55.648;13.208;2023-07-20T02:25:37;1.40;;;1.30;;
16153;SDS011;8182;55.648;13.208;2023-07-20T02:28:07;1.57;;;1.47;;
16153;SDS011;8182;55.648;13.208;2023-07-20T02:30:37;1.60;;;1.30;;
16153;SDS011;8182;55.648;13.208;2023-07-20T02:33:06;2.73;;;1.50;;
16153;SDS011;8182;55.648;13.208;2023-07-20T02:35:33;3.63;;;1.50;;
16153;SDS011;8182;55.648;13.208;2023-07-20T02:38:01;1.47;;;1.37;;
16153;SDS011;8182;55.648;13.208;2023-07-20T02:40:29;2.50;;;1.53;;
16153;SDS011;8182;55.648;13.208;2023-07-20T02:42:56;2.70;;;1.40;;
16153;SDS011;8182;55.648;13.208;2023-07-20T02:45:29;1.63;;;1.30;;
16153;SDS011;8182;55.648;13.208;2023-07-20T02:47:55;1.50;;;1.40;;
16153;SDS011;8182;55.648;13.208;2023-07-20T02:50:23;2.87;;;1.60;;
16153;SDS011;8182;55.648;13.208;2023-07-20T02:52:53;1.40;;;1.10;;
16153;SDS011;8182;55.648;13.208;2023-07-20T02:55:19;1.73;;;1.20;;
16153;SDS011;8182;55.648;13.208;2023-07-20T02:57:48;3.77;;;1.30;;
16153;SDS011;8182;55.648;13.208;2023-07-20T03:00:15;2.87;;;1.40;;
16153;SDS011;8182;55.648;13.208;2023-07-20T03:02:47;2.00;;;1.30;;
16153;SDS011;8182;55.648;13.208;2023-07-20T03:05:14;2.00;;;1.30;;
16153;SDS011;8182;55.648;13.208;2023-07-20T03:07:42;3.30;;;1.40;;
16153;SDS011;8182;55.648;13.208;2023-07-20T03:10:10;1.93;;;1.20;;
16153;SDS011;8182;55.648;13.208;2023-07-20T03:12:37;3.23;;;1.40;;
16153;SDS011;8182;55.648;13.208;2023-07-20T03:15:07;2.97;;;1.13;;
16153;SDS011;8182;55.648;13.208;2023-07-20T03:17:34;3.87;;;1.33;;
16153;SDS011;8182;55.648;13.208;2023-07-20T03:20:03;1.30;;;1.10;;
16153;SDS011;8182;55.648;13.208;2023-07-20T03:22:34;1.20;;;1.10;;
16153;SDS011;8182;55.648;13.208;2023-07-20T03:25:01;1.97;;;1.50;;
16153;SDS011;8182;55.648;13.208;2023-07-20T03:27:27;2.23;;;1.43;;
16153;SDS011;8182;55.648;13.208;2023-07-20T03:29:55;4.20;;;1.13;;
16153;SDS011;8182;55.648;13.208;2023-07-20T03:32:25;1.47;;;1.13;;
16153;SDS011;8182;55.648;13.208;2023-07-20T03:34:53;3.70;;;1.43;;
16153;SDS011;8182;55.648;13.208;2023-07-20T03:37:20;2.87;;;1.30;;
16153;SDS011;8182;55.648;13.208;2023-07-20T03:39:47;1.43;;;1.30;;
16153;SDS011;8182;55.648;13.208;2023-07-20T03:42:14;1.90;;;1.20;;
16153;SDS011;8182;55.648;13.208;2023-07-20T03:44:41;3.30;;;1.23;;
16153;SDS011;8182;55.648;13.208;2023-07-20T03:47:09;1.97;;;1.30;;
16153;SDS011;8182;55.648;13.208;2023-07-20T03:49:38;3.90;;;1.40;;
16153;SDS011;8182;55.648;13.208;2023-07-20T03:52:05;1.60;;;1.20;;
16153;SDS011;8182;55.648;13.208;2023-07-20T03:54:32;3.33;;;1.33;;
16153;SDS011;8182;55.648;13.208;2023-07-20T03:57:04;3.10;;;1.40;;
16153;SDS011;8182;55.648;13.208;2023-07-20T03:59:36;2.47;;;1.30;;
16153;SDS011;8182;55.648;13.208;2023-07-20T04:02:03;2.60;;;1.67;;
16153;SDS011;8182;55.648;13.208;2023-07-20T04:04:37;1.60;;;1.27;;
16153;SDS011;8182;55.648;13.208;2023-07-20T04:07:09;1.97;;;1.30;;
16153;SDS011;8182;55.648;13.208;2023-07-20T04:09:36;3.73;;;1.40;;
16153;SDS011;8182;55.648;13.208;2023-07-20T04:12:03;2.93;;;1.37;;
16153;SDS011;8182;55.648;13.208;2023-07-20T04:14:31;2.83;;;1.50;;
16153;SDS011;8182;55.648;13.208;2023-07-20T04:16:57;3.37;;;1.43;;
16153;SDS011;8182;55.648;13.208;2023-07-20T04:19:26;2.77;;;1.53;;
16153;SDS011;8182;55.648;13.208;2023-07-20T04:21:55;2.73;;;1.30;;
16153;SDS011;8182;55.648;13.208;2023-07-20T04:24:25;1.73;;;1.43;;
16153;SDS011;8182;55.648;13.208;2023-07-20T04:26:52;2.90;;;1.20;;
16153;SDS011;8182;55.648;13.208;2023-07-20T04:29:19;2.20;;;1.50;;
16153;SDS011;8182;55.648;13.208;2023-07-20T04:31:46;3.63;;;1.50;;
16153;SDS011;8182;55.648;13.208;2023-07-20T04:34:13;3.20;;;1.40;;
16153;SDS011;8182;55.648;13.208;2023-07-20T04:36:40;3.07;;;1.60;;
16153;SDS011;8182;55.648;13.208;2023-07-20T04:39:09;6.37;;;1.40;;
16153;SDS011;8182;55.648;13.208;2023-07-20T04:41:39;3.63;;;1.60;;
16153;SDS011;8182;55.648;13.208;2023-07-20T04:44:06;2.77;;;1.30;;
16153;SDS011;8182;55.648;13.208;2023-07-20T04:46:33;2.73;;;1.30;;
16153;SDS011;8182;55.648;13.208;2023-07-20T04:49:05;2.60;;;1.40;;
16153;SDS011;8182;55.648;13.208;2023-07-20T04:51:32;6.63;;;1.40;;
16153;SDS011;8182;55.648;13.208;2023-07-20T04:53:59;2.33;;;1.20;;
16153;SDS011;8182;55.648;13.208;2023-07-20T04:56:27;2.60;;;1.10;;
16153;SDS011;8182;55.648;13.208;2023-07-20T04:58:54;2.47;;;1.30;;
16153;SDS011;8182;55.648;13.208;2023-07-20T05:01:22;3.83;;;1.27;;
16153;SDS011;8182;55.648;13.208;2023-07-20T05:03:49;3.23;;;1.30;;
16153;SDS011;8182;55.648;13.208;2023-07-20T05:06:16;3.03;;;1.40;;
16153;SDS011;8182;55.648;13.208;2023-07-20T05:08:43;1.90;;;1.27;;
16153;SDS011;8182;55.648;13.208;2023-07-20T05:11:10;3.67;;;1.30;;
16153;SDS011;8182;55.648;13.208;2023-07-20T05:13:40;4.40;;;1.30;;
16153;SDS011;8182;55.648;13.208;2023-07-20T05:16:07;3.47;;;1.10;;
16153;SDS011;8182;55.648;13.208;2023-07-20T05:18:34;5.43;;;1.50;;
16153;SDS011;8182;55.648;13.208;2023-07-20T05:21:01;3.20;;;1.37;;
16153;SDS011;8182;55.648;13.208;2023-07-20T05:23:28;3.67;;;1.30;;
16153;SDS011;8182;55.648;13.208;2023-07-20T05:25:55;4.43;;;1.57;;
16153;SDS011;8182;55.648;13.208;2023-07-20T05:28:23;3.13;;;1.70;;
16153;SDS011;8182;55.648;13.208;2023-07-20T05:30:51;4.87;;;1.43;;
16153;SDS011;8182;55.648;13.208;2023-07-20T05:33:19;2.97;;;1.60;;
16153;SDS011;8182;55.648;13.208;2023-07-20T05:35:46;3.03;;;1.77;;
16153;SDS011;8182;55.648;13.208;2023-07-20T05:38:13;4.17;;;2.07;;
16153;SDS011;8182;55.648;13.208;2023-07-20T05:40:41;6.27;;;1.90;;
16153;SDS011;8182;55.648;13.208;2023-07-20T05:43:14;3.83;;;1.90;;
16153;SDS011;8182;55.648;13.208;2023-07-20T05:45:44;4.70;;;1.97;;
16153;SDS011;8182;55.648;13.208;2023-07-20T05:48:14;5.10;;;2.13;;
16153;SDS011;8182;55.648;13.208;2023-07-20T05:50:44;9.17;;;2.40;;
16153;SDS011;8182;55.648;13.208;2023-07-20T05:53:11;3.97;;;2.20;;
16153;SDS011;8182;55.648;13.208;2023-07-20T05:55:41;4.70;;;2.20;;
16153;SDS011;8182;55.648;13.208;2023-07-20T05:58:08;5.77;;;2.20;;
16153;SDS011;8182;55.648;13.208;2023-07-20T06:00:35;5.63;;;2.77;;
16153;SDS011;8182;55.648;13.208;2023-07-20T06:03:05;5.93;;;2.50;;
16153;SDS011;8182;55.648;13.208;2023-07-20T06:05:37;4.97;;;2.40;;
16153;SDS011;8182;55.648;13.208;2023-07-20T06:08:04;4.40;;;2.50;;
16153;SDS011;8182;55.648;13.208;2023-07-20T06:10:31;4.00;;;2.27;;
16153;SDS011;8182;55.648;13.208;2023-07-20T06:12:58;2.93;;;1.90;;
16153;SDS011;8182;55.648;13.208;2023-07-20T06:15:31;5.40;;;2.90;;
16153;SDS011;8182;55.648;13.208;2023-07-20T06:18:00;4.73;;;2.60;;
16153;SDS011;8182;55.648;13.208;2023-07-20T06:20:29;6.40;;;2.70;;
16153;SDS011;8182;55.648;13.208;2023-07-20T06:23:00;5.47;;;2.30;;
16153;SDS011;8182;55.648;13.208;2023-07-20T06:25:27;5.80;;;2.10;;
16153;SDS011;8182;55.648;13.208;2023-07-20T06:27:54;5.50;;;2.17;;
16153;SDS011;8182;55.648;13.208;2023-07-20T06:30:25;6.70;;;2.50;;
16153;SDS011;8182;55.648;13.208;2023-07-20T06:32:52;5.20;;;2.20;;
16153;SDS011;8182;55.648;13.208;2023-07-20T06:35:19;4.87;;;2.47;;
16153;SDS011;8182;55.648;13.208;2023-07-20T06:37:46;4.10;;;2.20;;
16153;SDS011;8182;55.648;13.208;2023-07-20T06:40:14;3.43;;;2.37;;
16153;SDS011;8182;55.648;13.208;2023-07-20T06:42:43;5.07;;;2.30;;
16153;SDS011;8182;55.648;13.208;2023-07-20T06:45:10;3.97;;;2.53;;
16153;SDS011;8182;55.648;13.208;2023-07-20T06:47:38;3.30;;;2.00;;
16153;SDS011;8182;55.648;13.208;2023-07-20T06:50:06;4.07;;;2.30;;
16153;SDS011;8182;55.648;13.208;2023-07-20T06:52:33;4.83;;;2.30;;
16153;SDS011;8182;55.648;13.208;2023-07-20T06:55:00;4.10;;;2.63;;
16153;SDS011;8182;55.648;13.208;2023-07-20T06:57:29;3.00;;;2.10;;
16153;SDS011;8182;55.648;13.208;2023-07-20T06:59:56;4.47;;;2.40;;
16153;SDS011;8182;55.648;13.208;2023-07-20T07:02:23;4.10;;;2.30;;
16153;SDS011;8182;55.648;13.208;2023-07-20T07:04:50;4.93;;;2.43;;
16153;SDS011;8182;55.648;13.208;2023-07-20T07:07:17;4.53;;;2.30;;
16153;SDS011;8182;55.648;13.208;2023-07-20T07:09:44;5.20;;;2.37;;
16153;SDS011;8182;55.648;13.208;2023-07-20T07:12:14;3.23;;;2.10;;
16153;SDS011;8182;55.648;13.208;2023-07-20T07:14:43;4.70;;;2.23;;
16153;SDS011;8182;55.648;13.208;2023-07-20T07:17:10;5.07;;;2.40;;
16153;SDS011;8182;55.648;13.208;2023-07-20T07:19:37;5.90;;;2.20;;
16153;SDS011;8182;55.648;13.208;2023-07-20T07:22:05;3.60;;;2.07;;
16153;SDS011;8182;55.648;13.208;2023-07-20T07:24:35;4.27;;;2.00;;
16153;SDS011;8182;55.648;13.208;2023-07-20T07:27:03;4.50;;;1.87;;
16153;SDS011;8182;55.648;13.208;2023-07-20T07:29:30;5.57;;;2.20;;
16153;SDS011;8182;55.648;13.208;2023-07-20T07:32:01;3.80;;;2.00;;
16153;SDS011;8182;55.648;13.208;2023-07-20T07:34:28;4.50;;;2.10;;
16153;SDS011;8182;55.648;13.208;2023-07-20T07:36:55;2.57;;;1.90;;
16153;SDS011;8182;55.648;13.208;2023-07-20T07:39:25;4.47;;;2.00;;
16153;SDS011;8182;55.648;13.208;2023-07-20T07:41:55;6.23;;;2.00;;
16153;SDS011;8182;55.648;13.208;2023-07-20T07:44:25;4.83;;;1.83;;
16153;SDS011;8182;55.648;13.208;2023-07-20T07:46:55;5.53;;;1.97;;
16153;SDS011;8182;55.648;13.208;2023-07-20T07:49:27;6.43;;;2.27;;
16153;SDS011;8182;55.648;13.208;2023-07-20T07:51:54;6.83;;;1.90;;
16153;SDS011;8182;55.648;13.208;2023-07-20T07:54:21;4.27;;;2.10;;
16153;SDS011;8182;55.648;13.208;2023-07-20T07:56:48;3.33;;;1.80;;
16153;SDS011;8182;55.648;13.208;2023-07-20T07:59:16;4.90;;;1.97;;
16153;SDS011;8182;55.648;13.208;2023-07-20T08:01:43;4.87;;;2.10;;
16153;SDS011;8182;55.648;13.208;2023-07-20T08:04:11;4.77;;;2.20;;
16153;SDS011;8182;55.648;13.208;2023-07-20T08:06:39;4.10;;;2.33;;
16153;SDS011;8182;55.648;13.208;2023-07-20T08:09:06;5.67;;;2.77;;
16153;SDS011;8182;55.648;13.208;2023-07-20T08:11:33;5.83;;;2.80;;
16153;SDS011;8182;55.648;13.208;2023-07-20T08:14:00;3.27;;;2.50;;
16153;SDS011;8182;55.648;13.208;2023-07-20T08:16:27;4.30;;;2.10;;
16153;SDS011;8182;55.648;13.208;2023-07-20T08:18:54;3.40;;;1.60;;
16153;SDS011;8182;55.648;13.208;2023-07-20T08:21:23;4.57;;;2.03;;
16153;SDS011;8182;55.648;13.208;2023-07-20T08:23:50;4.70;;;1.60;;
16153;SDS011;8182;55.648;13.208;2023-07-20T08:26:17;4.87;;;1.80;;
16153;SDS011;8182;55.648;13.208;2023-07-20T08:28:44;4.40;;;1.83;;
16153;SDS011;8182;55.648;13.208;2023-07-20T08:31:13;2.87;;;1.40;;
16153;SDS011;8182;55.648;13.208;2023-07-20T08:33:40;3.97;;;1.80;;
16153;SDS011;8182;55.648;13.208;2023-07-20T08:36:09;5.47;;;1.90;;
16153;SDS011;8182;55.648;13.208;2023-07-20T08:38:37;5.53;;;2.00;;
16153;SDS011;8182;55.648;13.208;2023-07-20T08:41:04;5.73;;;1.87;;
16153;SDS011;8182;55.648;13.208;2023-07-20T08:43:31;5.77;;;2.10;;
16153;SDS011;8182;55.648;13.208;2023-07-20T08:46:01;4.53;;;1.80;;
16153;SDS011;8182;55.648;13.208;2023-07-20T08:48:29;4.70;;;1.70;;
16153;SDS011;8182;55.648;13.208;2023-07-20T08:50:57;4.20;;;1.80;;
16153;SDS011;8182;55.648;13.208;2023-07-20T08:53:25;3.67;;;1.90;;
16153;SDS011;8182;55.648;13.208;2023-07-20T08:55:55;3.77;;;1.70;;
16153;SDS011;8182;55.648;13.208;2023-07-20T08:58:23;5.53;;;1.67;;
16153;SDS011;8182;55.648;13.208;2023-07-20T09:00:53;4.13;;;1.77;;
16153;SDS011;8182;55.648;13.208;2023-07-20T09:03:21;4.13;;;1.80;;
16153;SDS011;8182;55.648;13.208;2023-07-20T09:05:51;4.80;;;1.70;;
16153;SDS011;8182;55.648;13.208;2023-07-20T09:08:19;2.97;;;1.60;;
16153;SDS011;8182;55.648;13.208;2023-07-20T09:10:46;4.07;;;1.67;;
16153;SDS011;8182;55.648;13.208;2023-07-20T09:13:15;3.77;;;1.50;;
16153;SDS011;8182;55.648;13.208;2023-07-20T09:15:46;2.77;;;1.50;;
16153;SDS011;8182;55.648;13.208;2023-07-20T09:18:14;2.40;;;1.50;;
16153;SDS011;8182;55.648;13.208;2023-07-20T09:20:50;2.70;;;1.50;;
16153;SDS011;8182;55.648;13.208;2023-07-20T09:23:18;4.73;;;1.63;;
16153;SDS011;8182;55.648;13.208;2023-07-20T09:25:48;5.67;;;1.87;;
16153;SDS011;8182;55.648;13.208;2023-07-20T09:28:17;2.87;;;1.43;;
16153;SDS011;8182;55.648;13.208;2023-07-20T09:30:47;2.37;;;1.30;;
16153;SDS011;8182;55.648;13.208;2023-07-20T09:33:18;2.97;;;1.50;;
16153;SDS011;8182;55.648;13.208;2023-07-20T09:35:45;4.20;;;1.40;;
16153;SDS011;8182;55.648;13.208;2023-07-20T09:38:15;4.27;;;1.50;;
16153;SDS011;8182;55.648;13.208;2023-07-20T09:40:43;3.80;;;1.63;;
16153;SDS011;8182;55.648;13.208;2023-07-20T09:43:10;5.00;;;1.63;;
16153;SDS011;8182;55.648;13.208;2023-07-20T09:45:40;4.63;;;1.50;;
16153;SDS011;8182;55.648;13.208;2023-07-20T09:48:08;4.07;;;1.80;;
16153;SDS011;8182;55.648;13.208;2023-07-20T09:50:39;4.20;;;1.60;;
16153;SDS011;8182;55.648;13.208;2023-07-20T09:53:09;4.50;;;1.10;;
16153;SDS011;8182;55.648;13.208;2023-07-20T09:55:39;2.17;;;1.17;;
16153;SDS011;8182;55.648;13.208;2023-07-20T09:58:07;3.87;;;1.00;;
16153;SDS011;8182;55.648;13.208;2023-07-20T10:00:35;3.73;;;1.00;;
16153;SDS011;8182;55.648;13.208;2023-07-20T10:03:06;3.53;;;1.30;;
16153;SDS011;8182;55.648;13.208;2023-07-20T10:05:38;3.03;;;1.20;;
16153;SDS011;8182;55.648;13.208;2023-07-20T10:08:10;4.37;;;1.27;;
16153;SDS011;8182;55.648;13.208;2023-07-20T10:10:41;3.13;;;1.10;;
16153;SDS011;8182;55.648;13.208;2023-07-20T10:13:09;1.77;;;0.93;;
16153;SDS011;8182;55.648;13.208;2023-07-20T10:15:40;2.93;;;1.10;;
16153;SDS011;8182;55.648;13.208;2023-07-20T10:18:16;1.53;;;0.90;;
16153;SDS011;8182;55.648;13.208;2023-07-20T10:20:50;3.70;;;1.03;;
16153;SDS011;8182;55.648;13.208;2023-07-20T10:23:19;4.57;;;1.00;;
16153;SDS011;8182;55.648;13.208;2023-07-20T10:25:49;3.93;;;1.00;;
16153;SDS011;8182;55.648;13.208;2023-07-20T10:28:17;2.37;;;0.80;;
16153;SDS011;8182;55.648;13.208;2023-07-20T10:30:44;1.60;;;1.00;;
16153;SDS011;8182;55.648;13.208;2023-07-20T10:33:11;2.03;;;1.00;;
16153;SDS011;8182;55.648;13.208;2023-07-20T10:35:50;2.53;;;1.00;;
16153;SDS011;8182;55.648;13.208;2023-07-20T10:38:18;3.77;;;1.03;;
16153;SDS011;8182;55.648;13.208;2023-07-20T10:40:53;1.90;;;0.80;;
16153;SDS011;8182;55.648;13.208;2023-07-20T10:43:21;2.70;;;0.93;;
16153;SDS011;8182;55.648;13.208;2023-07-20T10:45:49;2.47;;;1.30;;
16153;SDS011;8182;55.648;13.208;2023-07-20T10:48:18;3.97;;;2.13;;
16153;SDS011;8182;55.648;13.208;2023-07-20T10:50:48;2.30;;;1.13;;
16153;SDS011;8182;55.648;13.208;2023-07-20T10:53:38;3.00;;;1.13;;
16153;SDS011;8182;55.648;13.208;2023-07-20T10:56:05;3.50;;;1.03;;
16153;SDS011;8182;55.648;13.208;2023-07-20T10:58:34;3.33;;;1.00;;
16153;SDS011;8182;55.648;13.208;2023-07-20T11:01:01;4.73;;;1.20;;
16153;SDS011;8182;55.648;13.208;2023-07-20T11:03:33;5.93;;;1.10;;
16153;SDS011;8182;55.648;13.208;2023-07-20T11:09:03;3.20;;;1.00;;
16153;SDS011;8182;55.648;13.208;2023-07-20T11:11:32;2.50;;;1.00;;
16153;SDS011;8182;55.648;13.208;2023-07-20T11:14:00;2.53;;;1.00;;
16153;SDS011;8182;55.648;13.208;2023-07-20T11:16:35;2.40;;;0.80;;
16153;SDS011;8182;55.648;13.208;2023-07-20T11:19:05;1.37;;;0.80;;
16153;SDS011;8182;55.648;13.208;2023-07-20T11:21:41;3.70;;;1.00;;
16153;SDS011;8182;55.648;13.208;2023-07-20T11:24:09;2.33;;;1.03;;
16153;SDS011;8182;55.648;13.208;2023-07-20T11:26:45;1.17;;;0.70;;
16153;SDS011;8182;55.648;13.208;2023-07-20T11:29:13;3.83;;;0.80;;
16153;SDS011;8182;55.648;13.208;2023-07-20T11:31:41;3.07;;;0.80;;
16153;SDS011;8182;55.648;13.208;2023-07-20T11:34:15;2.00;;;0.90;;
16153;SDS011;8182;55.648;13.208;2023-07-20T11:36:44;1.90;;;0.70;;
16153;SDS011;8182;55.648;13.208;2023-07-20T11:39:13;4.27;;;0.93;;
16153;SDS011;8182;55.648;13.208;2023-07-20T11:41:43;4.70;;;0.80;;
16153;SDS011;8182;55.648;13.208;2023-07-20T11:44:16;2.40;;;1.00;;
16153;SDS011;8182;55.648;13.208;2023-07-20T11:46:44;1.60;;;0.70;;
16153;SDS011;8182;55.648;13.208;2023-07-20T11:49:11;0.90;;;0.50;;
16153;SDS011;8182;55.648;13.208;2023-07-20T11:51:40;0.70;;;0.43;;
16153;SDS011;8182;55.648;13.208;2023-07-20T11:54:15;1.17;;;0.53;;
16153;SDS011;8182;55.648;13.208;2023-07-20T11:56:42;1.63;;;0.67;;
16153;SDS011;8182;55.648;13.208;2023-07-20T11:59:10;1.03;;;0.70;;
16153;SDS011;8182;55.648;13.208;2023-07-20T12:01:37;3.10;;;0.90;;
16153;SDS011;8182;55.648;13.208;2023-07-20T12:04:04;1.30;;;0.60;;
16153;SDS011;8182;55.648;13.208;2023-07-20T12:06:36;2.37;;;0.70;;
16153;SDS011;8182;55.648;13.208;2023-07-20T12:09:03;1.53;;;0.70;;
16153;SDS011;8182;55.648;13.208;2023-07-20T12:11:30;1.73;;;0.80;;
16153;SDS011;8182;55.648;13.208;2023-07-20T12:14:02;1.40;;;0.60;;
16153;SDS011;8182;55.648;13.208;2023-07-20T12:16:29;2.77;;;0.70;;
16153;SDS011;8182;55.648;13.208;2023-07-20T12:19:00;0.93;;;0.63;;
16153;SDS011;8182;55.648;13.208;2023-07-20T12:21:28;1.40;;;0.57;;
16153;SDS011;8182;55.648;13.208;2023-07-20T12:23:58;2.70;;;0.67;;
16153;SDS011;8182;55.648;13.208;2023-07-20T12:26:25;2.30;;;0.63;;
16153;SDS011;8182;55.648;13.208;2023-07-20T12:28:55;2.47;;;0.53;;
16153;SDS011;8182;55.648;13.208;2023-07-20T12:31:22;0.87;;;0.63;;
16153;SDS011;8182;55.648;13.208;2023-07-20T12:33:49;2.73;;;0.70;;
16153;SDS011;8182;55.648;13.208;2023-07-20T12:36:17;0.70;;;0.50;;
16153;SDS011;8182;55.648;13.208;2023-07-20T12:38:44;0.87;;;0.50;;
16153;SDS011;8182;55.648;13.208;2023-07-20T12:41:13;1.63;;;0.97;;
16153;SDS011;8182;55.648;13.208;2023-07-20T12:43:40;2.47;;;0.60;;
16153;SDS011;8182;55.648;13.208;2023-07-20T12:46:07;1.20;;;0.60;;
16153;SDS011;8182;55.648;13.208;2023-07-20T12:48:35;2.63;;;0.77;;
16153;SDS011;8182;55.648;13.208;2023-07-20T12:51:05;2.87;;;0.67;;
16153;SDS011;8182;55.648;13.208;2023-07-20T12:53:32;2.30;;;0.90;;
16153;SDS011;8182;55.648;13.208;2023-07-20T12:56:00;3.50;;;0.67;;
16153;SDS011;8182;55.648;13.208;2023-07-20T12:58:29;1.80;;;0.70;;
16153;SDS011;8182;55.648;13.208;2023-07-20T13:00:56;2.60;;;0.60;;
16153;SDS011;8182;55.648;13.208;2023-07-20T13:03:23;3.30;;;0.70;;
16153;SDS011;8182;55.648;13.208;2023-07-20T13:05:50;1.53;;;0.63;;
16153;SDS011;8182;55.648;13.208;2023-07-20T13:08:17;1.63;;;0.70;;
16153;SDS011;8182;55.648;13.208;2023-07-20T13:10:45;1.53;;;0.70;;
16153;SDS011;8182;55.648;13.208;2023-07-20T13:13:19;1.70;;;0.80;;
16153;SDS011;8182;55.648;13.208;2023-07-20T13:15:48;1.57;;;0.70;;
16153;SDS011;8182;55.648;13.208;2023-07-20T13:18:15;2.27;;;0.70;;
16153;SDS011;8182;55.648;13.208;2023-07-20T13:20:43;5.23;;;0.70;;
16153;SDS011;8182;55.648;13.208;2023-07-20T13:23:10;2.10;;;0.70;;
16153;SDS011;8182;55.648;13.208;2023-07-20T13:25:37;1.73;;;0.60;;
16153;SDS011;8182;55.648;13.208;2023-07-20T13:28:04;2.13;;;0.80;;
16153;SDS011;8182;55.648;13.208;2023-07-20T13:30:31;1.23;;;0.60;;
16153;SDS011;8182;55.648;13.208;2023-07-20T13:33:00;4.87;;;0.80;;
16153;SDS011;8182;55.648;13.208;2023-07-20T13:35:27;1.63;;;0.70;;
16153;SDS011;8182;55.648;13.208;2023-07-20T13:37:54;0.93;;;0.50;;
16153;SDS011;8182;55.648;13.208;2023-07-20T13:40:21;1.07;;;0.53;;
16153;SDS011;8182;55.648;13.208;2023-07-20T13:42:48;2.60;;;0.67;;
16153;SDS011;8182;55.648;13.208;2023-07-20T13:45:15;1.03;;;0.50;;
16153;SDS011;8182;55.648;13.208;2023-07-20T13:47:42;1.33;;;0.70;;
16153;SDS011;8182;55.648;13.208;2023-07-20T13:50:11;1.80;;;0.70;;
16153;SDS011;8182;55.648;13.208;2023-07-20T13:52:38;1.27;;;0.60;;
16153;SDS011;8182;55.648;13.208;2023-07-20T13:55:06;0.77;;;0.60;;
16153;SDS011;8182;55.648;13.208;2023-07-20T13:57:33;2.87;;;0.77;;
16153;SDS011;8182;55.648;13.208;2023-07-20T14:00:00;0.93;;;0.60;;
16153;SDS011;8182;55.648;13.208;2023-07-20T14:02:29;2.57;;;0.73;;
16153;SDS011;8182;55.648;13.208;2023-07-20T14:04:56;3.53;;;0.70;;
16153;SDS011;8182;55.648;13.208;2023-07-20T14:07:25;0.97;;;0.50;;
16153;SDS011;8182;55.648;13.208;2023-07-20T14:09:52;0.67;;;0.40;;
16153;SDS011;8182;55.648;13.208;2023-07-20T14:12:19;2.33;;;0.50;;
16153;SDS011;8182;55.648;13.208;2023-07-20T14:14:46;2.13;;;0.60;;
16153;SDS011;8182;55.648;13.208;2023-07-20T14:17:13;1.17;;;0.60;;
16153;SDS011;8182;55.648;13.208;2023-07-20T14:19:40;1.13;;;0.50;;
16153;SDS011;8182;55.648;13.208;2023-07-20T14:22:07;0.73;;;0.50;;
16153;SDS011;8182;55.648;13.208;2023-07-20T14:24:35;1.33;;;0.50;;
16153;SDS011;8182;55.648;13.208;2023-07-20T14:27:03;1.40;;;0.60;;
16153;SDS011;8182;55.648;13.208;2023-07-20T14:29:30;2.27;;;0.50;;
16153;SDS011;8182;55.648;13.208;2023-07-20T14:31:58;3.30;;;0.70;;
16153;SDS011;8182;55.648;13.208;2023-07-20T14:34:25;2.30;;;0.50;;
16153;SDS011;8182;55.648;13.208;2023-07-20T14:36:52;3.17;;;0.80;;
16153;SDS011;8182;55.648;13.208;2023-07-20T14:39:20;4.67;;;0.77;;
16153;SDS011;8182;55.648;13.208;2023-07-20T14:41:51;3.80;;;0.77;;
16153;SDS011;8182;55.648;13.208;2023-07-20T14:44:20;2.23;;;0.80;;
16153;SDS011;8182;55.648;13.208;2023-07-20T14:46:47;5.10;;;1.17;;
16153;SDS011;8182;55.648;13.208;2023-07-20T14:49:14;4.47;;;1.10;;
16153;SDS011;8182;55.648;13.208;2023-07-20T14:51:41;3.80;;;0.90;;
16153;SDS011;8182;55.648;13.208;2023-07-20T14:54:12;5.83;;;1.10;;
16153;SDS011;8182;55.648;13.208;2023-07-20T14:56:39;3.30;;;0.90;;
16153;SDS011;8182;55.648;13.208;2023-07-20T14:59:16;4.90;;;1.07;;
16153;SDS011;8182;55.648;13.208;2023-07-20T15:01:43;3.77;;;0.90;;